sensor_id;sensor_type;location;lat;lon;timestamp;temperature;humidity
18894;DHT22;9579;49.488;8.226;2023-02-18T00:18:41;13.90;99.90
18894;DHT22;9579;49.488;8.226;2023-02-18T00:21:29;13.80;99.90
18894;DHT22;9579;49.488;8.226;2023-02-18T00:24:18;13.90;99.90
18894;DHT22;9579;49.488;8.226;2023-02-18T00:27:05;13.90;99.90
18894;DHT22;9579;49.488;8.226;2023-02-18T00:29:52;13.80;99.90
18894;DHT22;9579;49.488;8.226;2023-02-18T00:43:02;13.80;99.90
18894;DHT22;9579;49.488;8.226;2023-02-18T00:45:49;13.90;99.90
18894;DHT22;9579;49.488;8.226;2023-02-18T00:48:37;13.80;99.90
18894;DHT22;9579;49.488;8.226;2023-02-18T00:51:24;13.70;99.90
18894;DHT22;9579;49.488;8.226;2023-02-18T00:54:16;13.70;99.90
18894;DHT22;9579;49.488;8.226;2023-02-18T00:57:04;13.70;99.90
18894;DHT22;9579;49.488;8.226;2023-02-18T00:59:53;13.70;99.90
18894;DHT22;9579;49.488;8.226;2023-02-18T07:03:20;13.80;99.90
18894;DHT22;9579;49.488;8.226;2023-02-18T07:06:07;13.90;99.90
18894;DHT22;9579;49.488;8.226;2023-02-18T07:08:54;13.80;99.90
18894;DHT22;9579;49.488;8.226;2023-02-18T07:11:41;13.80;99.90
18894;DHT22;9579;49.488;8.226;2023-02-18T07:14:28;13.70;99.90
18894;DHT22;9579;49.488;8.226;2023-02-18T07:20:11;13.70;99.90
18894;DHT22;9579;49.488;8.226;2023-02-18T08:08:13;14.00;99.90
18894;DHT22;9579;49.488;8.226;2023-02-18T08:11:15;14.00;99.90
18894;DHT22;9579;49.488;8.226;2023-02-18T08:14:05;14.00;99.90
18894;DHT22;9579;49.488;8.226;2023-02-18T08:29:06;14.10;99.90
18894;DHT22;9579;49.488;8.226;2023-02-18T08:32:17;13.30;99.90
18894;DHT22;9579;49.488;8.226;2023-02-18T08:35:22;13.50;99.90
18894;DHT22;9579;49.488;8.226;2023-02-18T08:38:26;14.00;99.90
18894;DHT22;9579;49.488;8.226;2023-02-18T08:41:31;14.10;99.90
18894;DHT22;9579;49.488;8.226;2023-02-18T11:14:44;14.00;99.90
18894;DHT22;9579;49.488;8.226;2023-02-18T11:17:46;14.10;99.90
18894;DHT22;9579;49.488;8.226;2023-02-18T11:20:35;13.90;99.90
18894;DHT22;9579;49.488;8.226;2023-02-18T11:23:23;13.90;99.90
18894;DHT22;9579;49.488;8.226;2023-02-18T11:26:12;14.00;99.90
18894;DHT22;9579;49.488;8.226;2023-02-18T12:19:37;15.70;99.90
18894;DHT22;9579;49.488;8.226;2023-02-18T12:22:36;15.60;99.90
18894;DHT22;9579;49.488;8.226;2023-02-18T12:25:34;15.60;99.90
18894;DHT22;9579;49.488;8.226;2023-02-18T12:28:32;15.70;99.90
18894;DHT22;9579;49.488;8.226;2023-02-18T12:31:56;15.80;99.90
18894;DHT22;9579;49.488;8.226;2023-02-18T14:03:32;17.50;97.60
18894;DHT22;9579;49.488;8.226;2023-02-18T14:06:22;19.10;97.80
18894;DHT22;9579;49.488;8.226;2023-02-18T14:09:35;18.10;97.00
18894;DHT22;9579;49.488;8.226;2023-02-18T14:12:35;18.60;96.20
18894;DHT22;9579;49.488;8.226;2023-02-18T14:15:55;18.60;96.20
18894;DHT22;9579;49.488;8.226;2023-02-18T14:18:59;18.60;96.00
18894;DHT22;9579;49.488;8.226;2023-02-18T14:21:46;18.20;96.10
18894;DHT22;9579;49.488;8.226;2023-02-18T14:24:47;18.30;95.90
18894;DHT22;9579;49.488;8.226;2023-02-18T14:27:37;20.10;96.60
18894;DHT22;9579;49.488;8.226;2023-02-18T14:30:29;18.60;95.90
18894;DHT22;9579;49.488;8.226;2023-02-18T14:33:19;19.00;95.80
18894;DHT22;9579;49.488;8.226;2023-02-18T14:36:18;18.60;95.60
18894;DHT22;9579;49.488;8.226;2023-02-18T14:39:27;18.10;96.10
18894;DHT22;9579;49.488;8.226;2023-02-18T15:05:18;15.10;98.50
18894;DHT22;9579;49.488;8.226;2023-02-18T18:20:51;13.00;99.90
18894;DHT22;9579;49.488;8.226;2023-02-18T18:23:38;13.80;99.90
18894;DHT22;9579;49.488;8.226;2023-02-18T18:26:25;12.80;99.90
18894;DHT22;9579;49.488;8.226;2023-02-18T18:29:12;13.90;99.90
18894;DHT22;9579;49.488;8.226;2023-02-18T18:32:00;12.90;99.90
18894;DHT22;9579;49.488;8.226;2023-02-18T18:34:47;14.00;99.90
18894;DHT22;9579;49.488;8.226;2023-02-18T18:37:36;13.60;99.90
18894;DHT22;9579;49.488;8.226;2023-02-18T18:45:40;13.30;99.90
18894;DHT22;9579;49.488;8.226;2023-02-18T18:48:27;13.10;99.90
18894;DHT22;9579;49.488;8.226;2023-02-18T18:51:14;13.20;99.90
18894;DHT22;9579;49.488;8.226;2023-02-18T18:54:03;13.30;99.90
18894;DHT22;9579;49.488;8.226;2023-02-18T18:56:50;13.20;99.90
18894;DHT22;9579;49.488;8.226;2023-02-18T18:59:39;13.20;99.90
18894;DHT22;9579;49.488;8.226;2023-02-18T19:02:26;13.20;99.90
18894;DHT22;9579;49.488;8.226;2023-02-18T19:05:18;13.20;99.90
18894;DHT22;9579;49.488;8.226;2023-02-18T19:08:08;13.30;99.90
18894;DHT22;9579;49.488;8.226;2023-02-18T19:10:57;13.20;99.90
18894;DHT22;9579;49.488;8.226;2023-02-18T19:13:44;13.20;99.90
18894;DHT22;9579;49.488;8.226;2023-02-18T19:16:33;13.20;99.90
18894;DHT22;9579;49.488;8.226;2023-02-18T19:19:22;13.20;99.90
18894;DHT22;9579;49.488;8.226;2023-02-18T19:22:10;13.20;99.90
18894;DHT22;9579;49.488;8.226;2023-02-18T19:24:57;13.10;99.90
18894;DHT22;9579;49.488;8.226;2023-02-18T19:27:47;13.20;99.90
18894;DHT22;9579;49.488;8.226;2023-02-18T19:30:35;13.00;99.90
18894;DHT22;9579;49.488;8.226;2023-02-18T19:33:22;13.00;99.90
18894;DHT22;9579;49.488;8.226;2023-02-18T19:36:10;13.10;99.90
18894;DHT22;9579;49.488;8.226;2023-02-18T19:38:59;13.10;99.90
18894;DHT22;9579;49.488;8.226;2023-02-18T19:41:46;13.00;99.90
18894;DHT22;9579;49.488;8.226;2023-02-18T19:44:34;13.10;99.90
18894;DHT22;9579;49.488;8.226;2023-02-18T19:47:22;13.10;99.90
18894;DHT22;9579;49.488;8.226;2023-02-18T19:50:12;13.20;99.90
18894;DHT22;9579;49.488;8.226;2023-02-18T19:53:00;13.20;99.90
18894;DHT22;9579;49.488;8.226;2023-02-18T19:55:55;13.10;99.90
18894;DHT22;9579;49.488;8.226;2023-02-18T19:58:42;13.10;99.90
18894;DHT22;9579;49.488;8.226;2023-02-18T20:01:31;13.10;99.90
18894;DHT22;9579;49.488;8.226;2023-02-18T20:04:18;13.10;99.90
18894;DHT22;9579;49.488;8.226;2023-02-18T20:07:05;13.10;99.90
18894;DHT22;9579;49.488;8.226;2023-02-18T20:09:52;13.10;99.90
18894;DHT22;9579;49.488;8.226;2023-02-18T20:12:39;13.10;99.90
18894;DHT22;9579;49.488;8.226;2023-02-18T20:15:26;13.10;99.90
18894;DHT22;9579;49.488;8.226;2023-02-18T20:18:15;13.10;99.90
18894;DHT22;9579;49.488;8.226;2023-02-18T20:21:02;13.00;99.90
18894;DHT22;9579;49.488;8.226;2023-02-18T20:23:52;13.00;99.90
18894;DHT22;9579;49.488;8.226;2023-02-18T20:26:39;13.00;99.90
18894;DHT22;9579;49.488;8.226;2023-02-18T20:29:28;13.30;99.90
18894;DHT22;9579;49.488;8.226;2023-02-18T20:32:18;13.10;99.90
18894;DHT22;9579;49.488;8.226;2023-02-18T20:35:07;12.90;99.90
18894;DHT22;9579;49.488;8.226;2023-02-18T20:37:54;12.90;99.90
18894;DHT22;9579;49.488;8.226;2023-02-18T20:40:42;12.90;99.90
18894;DHT22;9579;49.488;8.226;2023-02-18T20:43:29;12.90;99.90
18894;DHT22;9579;49.488;8.226;2023-02-18T20:46:19;12.80;99.90
18894;DHT22;9579;49.488;8.226;2023-02-18T20:49:08;12.90;99.90
18894;DHT22;9579;49.488;8.226;2023-02-18T20:51:57;12.80;99.90
18894;DHT22;9579;49.488;8.226;2023-02-18T20:54:44;12.80;99.90
18894;DHT22;9579;49.488;8.226;2023-02-18T20:57:31;12.80;99.90
18894;DHT22;9579;49.488;8.226;2023-02-18T21:00:19;12.80;99.90
18894;DHT22;9579;49.488;8.226;2023-02-18T21:03:07;12.70;99.90
18894;DHT22;9579;49.488;8.226;2023-02-18T21:05:55;12.70;99.90
18894;DHT22;9579;49.488;8.226;2023-02-18T21:08:44;12.70;99.90
18894;DHT22;9579;49.488;8.226;2023-02-18T21:11:32;12.80;99.90
18894;DHT22;9579;49.488;8.226;2023-02-18T21:14:19;12.80;99.90
18894;DHT22;9579;49.488;8.226;2023-02-18T21:17:06;12.80;99.90
18894;DHT22;9579;49.488;8.226;2023-02-18T21:19:53;12.70;99.90
18894;DHT22;9579;49.488;8.226;2023-02-18T21:22:40;12.60;99.90
18894;DHT22;9579;49.488;8.226;2023-02-18T21:25:29;12.60;99.90
18894;DHT22;9579;49.488;8.226;2023-02-18T21:28:16;12.60;99.90
18894;DHT22;9579;49.488;8.226;2023-02-18T21:31:04;12.50;99.90
18894;DHT22;9579;49.488;8.226;2023-02-18T21:33:51;12.60;99.90
18894;DHT22;9579;49.488;8.226;2023-02-18T21:36:38;12.60;99.90
18894;DHT22;9579;49.488;8.226;2023-02-18T21:39:26;12.70;99.90
18894;DHT22;9579;49.488;8.226;2023-02-18T21:42:14;12.60;99.90
18894;DHT22;9579;49.488;8.226;2023-02-18T21:45:01;12.60;99.90
18894;DHT22;9579;49.488;8.226;2023-02-18T21:47:49;12.70;99.90
18894;DHT22;9579;49.488;8.226;2023-02-18T21:50:36;12.60;99.90
18894;DHT22;9579;49.488;8.226;2023-02-18T21:53:23;12.50;99.90
18894;DHT22;9579;49.488;8.226;2023-02-18T21:56:11;12.60;99.90
18894;DHT22;9579;49.488;8.226;2023-02-18T21:58:59;12.60;99.90
18894;DHT22;9579;49.488;8.226;2023-02-18T22:01:47;12.60;99.90
18894;DHT22;9579;49.488;8.226;2023-02-18T22:04:36;12.60;99.90
18894;DHT22;9579;49.488;8.226;2023-02-18T22:07:26;12.60;99.90
18894;DHT22;9579;49.488;8.226;2023-02-18T22:10:13;12.50;99.90
18894;DHT22;9579;49.488;8.226;2023-02-18T22:13:00;12.50;99.90
18894;DHT22;9579;49.488;8.226;2023-02-18T22:15:54;12.50;99.90
18894;DHT22;9579;49.488;8.226;2023-02-18T22:18:42;12.50;99.90
18894;DHT22;9579;49.488;8.226;2023-02-18T22:21:29;12.40;99.90
18894;DHT22;9579;49.488;8.226;2023-02-18T22:24:17;12.30;99.90
18894;DHT22;9579;49.488;8.226;2023-02-18T22:27:04;12.40;99.90
18894;DHT22;9579;49.488;8.226;2023-02-18T22:29:51;12.40;99.90
18894;DHT22;9579;49.488;8.226;2023-02-18T22:32:40;12.40;99.90
18894;DHT22;9579;49.488;8.226;2023-02-18T22:35:27;12.50;99.90
18894;DHT22;9579;49.488;8.226;2023-02-18T22:38:14;12.40;99.90
18894;DHT22;9579;49.488;8.226;2023-02-18T22:41:04;12.40;99.90
18894;DHT22;9579;49.488;8.226;2023-02-18T22:43:54;12.30;99.90
18894;DHT22;9579;49.488;8.226;2023-02-18T22:46:43;12.30;99.90
18894;DHT22;9579;49.488;8.226;2023-02-18T22:49:32;12.40;99.90
18894;DHT22;9579;49.488;8.226;2023-02-18T22:52:19;12.40;99.90
18894;DHT22;9579;49.488;8.226;2023-02-18T22:55:06;12.40;99.90
18894;DHT22;9579;49.488;8.226;2023-02-18T22:57:53;12.40;99.90
18894;DHT22;9579;49.488;8.226;2023-02-18T23:00:40;12.40;99.90
18894;DHT22;9579;49.488;8.226;2023-02-18T23:03:28;12.30;99.90
18894;DHT22;9579;49.488;8.226;2023-02-18T23:06:17;12.20;99.90
18894;DHT22;9579;49.488;8.226;2023-02-18T23:09:04;12.20;99.90
18894;DHT22;9579;49.488;8.226;2023-02-18T23:11:53;12.30;99.90
18894;DHT22;9579;49.488;8.226;2023-02-18T23:14:41;12.30;99.90
18894;DHT22;9579;49.488;8.226;2023-02-18T23:17:28;12.30;99.90
18894;DHT22;9579;49.488;8.226;2023-02-18T23:20:15;12.30;99.90
18894;DHT22;9579;49.488;8.226;2023-02-18T23:23:23;12.30;99.90
18894;DHT22;9579;49.488;8.226;2023-02-18T23:26:11;12.30;99.90
18894;DHT22;9579;49.488;8.226;2023-02-18T23:28:58;12.20;99.90
18894;DHT22;9579;49.488;8.226;2023-02-18T23:31:45;12.20;99.90
18894;DHT22;9579;49.488;8.226;2023-02-18T23:34:32;12.20;99.90
18894;DHT22;9579;49.488;8.226;2023-02-18T23:37:19;12.00;99.90
18894;DHT22;9579;49.488;8.226;2023-02-18T23:40:29;12.00;99.90
18894;DHT22;9579;49.488;8.226;2023-02-18T23:43:16;12.00;99.90
18894;DHT22;9579;49.488;8.226;2023-02-18T23:46:03;12.00;99.90
18894;DHT22;9579;49.488;8.226;2023-02-18T23:48:50;12.10;99.90
18894;DHT22;9579;49.488;8.226;2023-02-18T23:51:38;12.00;99.90
18894;DHT22;9579;49.488;8.226;2023-02-18T23:54:25;12.00;99.90
18894;DHT22;9579;49.488;8.226;2023-02-18T23:57:13;12.00;99.90
